sensor_id;sensor_type;location;lat;lon;timestamp;temperature;humidity
11991;DHT22;6055;52.522;13.446;2023-03-12T00:00:20;1.70;99.90
11991;DHT22;6055;52.522;13.446;2023-03-12T00:02:46;1.70;99.90
11991;DHT22;6055;52.522;13.446;2023-03-12T00:05:11;1.70;99.90
11991;DHT22;6055;52.522;13.446;2023-03-12T00:07:37;1.70;99.90
11991;DHT22;6055;52.522;13.446;2023-03-12T00:10:04;1.70;99.90
11991;DHT22;6055;52.522;13.446;2023-03-12T00:12:30;1.70;99.90
11991;DHT22;6055;52.522;13.446;2023-03-12T00:14:55;1.70;99.90
11991;DHT22;6055;52.522;13.446;2023-03-12T00:17:21;1.70;99.90
11991;DHT22;6055;52.522;13.446;2023-03-12T00:19:50;1.70;99.90
11991;DHT22;6055;52.522;13.446;2023-03-12T00:22:16;1.70;99.90
11991;DHT22;6055;52.522;13.446;2023-03-12T00:24:42;1.70;99.90
11991;DHT22;6055;52.522;13.446;2023-03-12T00:27:07;1.70;99.90
11991;DHT22;6055;52.522;13.446;2023-03-12T00:29:33;1.70;99.90
11991;DHT22;6055;52.522;13.446;2023-03-12T00:31:58;1.70;99.90
11991;DHT22;6055;52.522;13.446;2023-03-12T00:34:24;1.70;99.90
11991;DHT22;6055;52.522;13.446;2023-03-12T00:36:49;1.70;99.90
11991;DHT22;6055;52.522;13.446;2023-03-12T00:39:15;1.70;99.90
11991;DHT22;6055;52.522;13.446;2023-03-12T00:41:40;1.70;99.90
11991;DHT22;6055;52.522;13.446;2023-03-12T00:44:05;1.70;99.90
11991;DHT22;6055;52.522;13.446;2023-03-12T00:46:31;1.70;99.90
11991;DHT22;6055;52.522;13.446;2023-03-12T00:48:56;1.60;99.90
11991;DHT22;6055;52.522;13.446;2023-03-12T00:51:22;1.70;99.90
11991;DHT22;6055;52.522;13.446;2023-03-12T00:53:47;1.70;99.90
11991;DHT22;6055;52.522;13.446;2023-03-12T00:56:13;1.70;99.90
11991;DHT22;6055;52.522;13.446;2023-03-12T00:58:38;1.60;99.90
11991;DHT22;6055;52.522;13.446;2023-03-12T01:01:07;1.70;99.90
11991;DHT22;6055;52.522;13.446;2023-03-12T01:03:32;1.80;99.90
11991;DHT22;6055;52.522;13.446;2023-03-12T01:05:58;1.80;99.90
11991;DHT22;6055;52.522;13.446;2023-03-12T01:08:23;1.80;99.90
11991;DHT22;6055;52.522;13.446;2023-03-12T01:10:49;1.90;99.90
11991;DHT22;6055;52.522;13.446;2023-03-12T01:13:15;1.90;99.90
11991;DHT22;6055;52.522;13.446;2023-03-12T01:15:40;1.90;99.90
11991;DHT22;6055;52.522;13.446;2023-03-12T01:18:06;2.00;99.90
11991;DHT22;6055;52.522;13.446;2023-03-12T01:20:32;2.00;99.90
11991;DHT22;6055;52.522;13.446;2023-03-12T01:22:57;2.00;99.90
11991;DHT22;6055;52.522;13.446;2023-03-12T01:25:23;2.00;99.90
11991;DHT22;6055;52.522;13.446;2023-03-12T01:27:48;2.00;99.90
11991;DHT22;6055;52.522;13.446;2023-03-12T01:30:14;2.00;99.90
11991;DHT22;6055;52.522;13.446;2023-03-12T01:32:39;2.00;99.90
11991;DHT22;6055;52.522;13.446;2023-03-12T01:35:05;2.00;99.90
11991;DHT22;6055;52.522;13.446;2023-03-12T01:37:32;2.00;99.90
11991;DHT22;6055;52.522;13.446;2023-03-12T01:39:58;2.00;99.90
11991;DHT22;6055;52.522;13.446;2023-03-12T01:42:24;2.00;99.90
11991;DHT22;6055;52.522;13.446;2023-03-12T01:47:17;2.00;99.90
11991;DHT22;6055;52.522;13.446;2023-03-12T01:49:44;2.10;99.90
11991;DHT22;6055;52.522;13.446;2023-03-12T01:52:13;2.10;99.90
11991;DHT22;6055;52.522;13.446;2023-03-12T01:54:43;2.10;99.90
11991;DHT22;6055;52.522;13.446;2023-03-12T01:57:18;2.10;99.90
11991;DHT22;6055;52.522;13.446;2023-03-12T01:59:48;2.10;99.90
11991;DHT22;6055;52.522;13.446;2023-03-12T02:02:14;2.10;99.90
11991;DHT22;6055;52.522;13.446;2023-03-12T02:04:42;2.10;99.90
11991;DHT22;6055;52.522;13.446;2023-03-12T02:07:11;2.10;99.90
11991;DHT22;6055;52.522;13.446;2023-03-12T02:09:44;2.10;99.90
11991;DHT22;6055;52.522;13.446;2023-03-12T02:12:11;2.00;99.90
11991;DHT22;6055;52.522;13.446;2023-03-12T02:14:37;2.10;99.90
11991;DHT22;6055;52.522;13.446;2023-03-12T02:17:03;2.10;99.90
11991;DHT22;6055;52.522;13.446;2023-03-12T02:22:19;2.10;99.90
11991;DHT22;6055;52.522;13.446;2023-03-12T02:27:43;2.10;99.90
11991;DHT22;6055;52.522;13.446;2023-03-12T02:30:10;2.10;99.90
11991;DHT22;6055;52.522;13.446;2023-03-12T02:32:40;2.00;99.90
11991;DHT22;6055;52.522;13.446;2023-03-12T02:35:07;1.90;99.90
11991;DHT22;6055;52.522;13.446;2023-03-12T02:37:32;1.90;99.90
11991;DHT22;6055;52.522;13.446;2023-03-12T02:40:11;1.90;99.90
11991;DHT22;6055;52.522;13.446;2023-03-12T02:42:38;1.90;99.90
11991;DHT22;6055;52.522;13.446;2023-03-12T02:45:04;1.90;99.90
11991;DHT22;6055;52.522;13.446;2023-03-12T02:47:29;1.80;99.90
11991;DHT22;6055;52.522;13.446;2023-03-12T02:49:55;1.80;99.90
11991;DHT22;6055;52.522;13.446;2023-03-12T02:52:20;1.70;99.90
11991;DHT22;6055;52.522;13.446;2023-03-12T02:54:46;1.70;99.90
11991;DHT22;6055;52.522;13.446;2023-03-12T02:57:11;1.70;99.90
11991;DHT22;6055;52.522;13.446;2023-03-12T02:59:37;1.70;99.90
11991;DHT22;6055;52.522;13.446;2023-03-12T03:02:02;1.70;99.90
11991;DHT22;6055;52.522;13.446;2023-03-12T03:04:29;1.60;99.90
11991;DHT22;6055;52.522;13.446;2023-03-12T03:06:55;1.60;99.90
11991;DHT22;6055;52.522;13.446;2023-03-12T03:09:21;1.60;99.90
11991;DHT22;6055;52.522;13.446;2023-03-12T03:11:48;1.60;99.90
11991;DHT22;6055;52.522;13.446;2023-03-12T03:14:13;1.50;99.90
11991;DHT22;6055;52.522;13.446;2023-03-12T03:16:39;1.50;99.90
11991;DHT22;6055;52.522;13.446;2023-03-12T03:19:05;1.50;99.90
11991;DHT22;6055;52.522;13.446;2023-03-12T03:21:31;1.50;99.90
11991;DHT22;6055;52.522;13.446;2023-03-12T03:23:56;1.50;99.90
11991;DHT22;6055;52.522;13.446;2023-03-12T03:26:22;1.50;99.90
11991;DHT22;6055;52.522;13.446;2023-03-12T03:28:48;1.40;99.90
11991;DHT22;6055;52.522;13.446;2023-03-12T03:31:14;1.40;99.90
11991;DHT22;6055;52.522;13.446;2023-03-12T03:33:40;1.40;99.90
11991;DHT22;6055;52.522;13.446;2023-03-12T03:36:06;1.30;99.90
11991;DHT22;6055;52.522;13.446;2023-03-12T03:38:33;1.30;99.90
11991;DHT22;6055;52.522;13.446;2023-03-12T03:40:59;1.30;99.90
11991;DHT22;6055;52.522;13.446;2023-03-12T03:43:25;1.30;99.90
11991;DHT22;6055;52.522;13.446;2023-03-12T03:46:02;1.30;99.90
11991;DHT22;6055;52.522;13.446;2023-03-12T03:48:29;1.20;99.90
11991;DHT22;6055;52.522;13.446;2023-03-12T03:50:59;1.20;99.90
11991;DHT22;6055;52.522;13.446;2023-03-12T03:53:25;1.20;99.90
11991;DHT22;6055;52.522;13.446;2023-03-12T03:55:50;1.20;99.90
11991;DHT22;6055;52.522;13.446;2023-03-12T03:58:15;1.20;99.90
11991;DHT22;6055;52.522;13.446;2023-03-12T04:00:43;1.20;99.90
11991;DHT22;6055;52.522;13.446;2023-03-12T04:03:09;1.20;99.90
11991;DHT22;6055;52.522;13.446;2023-03-12T04:05:35;1.20;99.90
11991;DHT22;6055;52.522;13.446;2023-03-12T04:08:00;1.10;99.90
11991;DHT22;6055;52.522;13.446;2023-03-12T04:10:27;1.10;99.90
11991;DHT22;6055;52.522;13.446;2023-03-12T04:12:53;1.10;99.90
11991;DHT22;6055;52.522;13.446;2023-03-12T04:15:19;1.10;99.90
11991;DHT22;6055;52.522;13.446;2023-03-12T04:17:44;1.10;99.90
11991;DHT22;6055;52.522;13.446;2023-03-12T04:20:10;1.00;99.90
11991;DHT22;6055;52.522;13.446;2023-03-12T04:22:36;1.00;99.90
11991;DHT22;6055;52.522;13.446;2023-03-12T04:25:02;1.00;99.90
11991;DHT22;6055;52.522;13.446;2023-03-12T04:27:28;1.00;99.90
11991;DHT22;6055;52.522;13.446;2023-03-12T04:29:53;1.00;99.90
11991;DHT22;6055;52.522;13.446;2023-03-12T04:32:19;1.00;99.90
11991;DHT22;6055;52.522;13.446;2023-03-12T04:34:44;1.00;99.90
11991;DHT22;6055;52.522;13.446;2023-03-12T04:37:10;1.00;99.90
11991;DHT22;6055;52.522;13.446;2023-03-12T04:39:38;1.00;99.90
11991;DHT22;6055;52.522;13.446;2023-03-12T04:42:04;1.00;99.90
11991;DHT22;6055;52.522;13.446;2023-03-12T04:44:30;0.90;99.90
11991;DHT22;6055;52.522;13.446;2023-03-12T04:46:55;0.90;99.90
11991;DHT22;6055;52.522;13.446;2023-03-12T04:49:20;0.90;99.90
11991;DHT22;6055;52.522;13.446;2023-03-12T04:51:46;0.90;99.90
11991;DHT22;6055;52.522;13.446;2023-03-12T04:54:11;0.90;99.90
11991;DHT22;6055;52.522;13.446;2023-03-12T04:56:37;1.00;99.90
11991;DHT22;6055;52.522;13.446;2023-03-12T04:59:03;0.90;99.90
11991;DHT22;6055;52.522;13.446;2023-03-12T05:01:31;0.90;99.90
11991;DHT22;6055;52.522;13.446;2023-03-12T05:03:57;0.90;99.90
11991;DHT22;6055;52.522;13.446;2023-03-12T05:06:23;0.90;99.90
11991;DHT22;6055;52.522;13.446;2023-03-12T05:08:49;0.90;99.90
11991;DHT22;6055;52.522;13.446;2023-03-12T05:11:15;0.80;99.90
11991;DHT22;6055;52.522;13.446;2023-03-12T05:13:41;0.90;99.90
11991;DHT22;6055;52.522;13.446;2023-03-12T05:16:08;0.80;99.90
11991;DHT22;6055;52.522;13.446;2023-03-12T05:18:34;0.80;99.90
11991;DHT22;6055;52.522;13.446;2023-03-12T05:21:06;0.80;99.90
11991;DHT22;6055;52.522;13.446;2023-03-12T05:23:33;0.80;99.90
11991;DHT22;6055;52.522;13.446;2023-03-12T05:25:58;0.80;99.90
11991;DHT22;6055;52.522;13.446;2023-03-12T05:28:24;0.80;99.90
11991;DHT22;6055;52.522;13.446;2023-03-12T05:31:00;0.70;99.90
11991;DHT22;6055;52.522;13.446;2023-03-12T05:33:27;0.80;99.90
11991;DHT22;6055;52.522;13.446;2023-03-12T05:35:52;0.80;99.90
11991;DHT22;6055;52.522;13.446;2023-03-12T05:38:18;0.80;99.90
11991;DHT22;6055;52.522;13.446;2023-03-12T05:40:50;0.80;99.90
11991;DHT22;6055;52.522;13.446;2023-03-12T05:43:17;0.70;99.90
11991;DHT22;6055;52.522;13.446;2023-03-12T05:45:43;0.80;99.90
11991;DHT22;6055;52.522;13.446;2023-03-12T05:48:08;0.80;99.90
11991;DHT22;6055;52.522;13.446;2023-03-12T05:50:34;0.80;99.90
11991;DHT22;6055;52.522;13.446;2023-03-12T05:53:00;0.80;99.90
11991;DHT22;6055;52.522;13.446;2023-03-12T05:55:26;0.80;99.90
11991;DHT22;6055;52.522;13.446;2023-03-12T05:57:51;0.80;99.90
11991;DHT22;6055;52.522;13.446;2023-03-12T06:00:17;0.80;99.90
11991;DHT22;6055;52.522;13.446;2023-03-12T06:02:43;0.80;99.90
11991;DHT22;6055;52.522;13.446;2023-03-12T06:05:09;0.80;99.90
11991;DHT22;6055;52.522;13.446;2023-03-12T06:07:35;0.80;99.90
11991;DHT22;6055;52.522;13.446;2023-03-12T06:10:00;0.80;99.90
11991;DHT22;6055;52.522;13.446;2023-03-12T06:12:26;0.80;99.90
11991;DHT22;6055;52.522;13.446;2023-03-12T06:14:51;0.80;99.90
11991;DHT22;6055;52.522;13.446;2023-03-12T06:17:17;0.80;99.90
11991;DHT22;6055;52.522;13.446;2023-03-12T06:19:42;0.80;99.90
11991;DHT22;6055;52.522;13.446;2023-03-12T06:22:08;0.80;99.90
11991;DHT22;6055;52.522;13.446;2023-03-12T06:24:34;0.80;99.90
11991;DHT22;6055;52.522;13.446;2023-03-12T06:26:59;0.80;99.90
11991;DHT22;6055;52.522;13.446;2023-03-12T06:29:24;0.90;99.90
11991;DHT22;6055;52.522;13.446;2023-03-12T06:31:50;0.90;99.90
11991;DHT22;6055;52.522;13.446;2023-03-12T06:34:16;0.90;99.90
11991;DHT22;6055;52.522;13.446;2023-03-12T06:36:42;0.90;99.90
11991;DHT22;6055;52.522;13.446;2023-03-12T06:39:07;0.90;99.90
11991;DHT22;6055;52.522;13.446;2023-03-12T06:41:34;1.00;99.90
11991;DHT22;6055;52.522;13.446;2023-03-12T06:44:00;1.00;99.90
11991;DHT22;6055;52.522;13.446;2023-03-12T06:46:28;0.90;99.90
11991;DHT22;6055;52.522;13.446;2023-03-12T06:48:54;1.00;99.90
11991;DHT22;6055;52.522;13.446;2023-03-12T06:51:19;1.10;99.90
11991;DHT22;6055;52.522;13.446;2023-03-12T06:53:45;1.10;99.90
11991;DHT22;6055;52.522;13.446;2023-03-12T06:56:12;1.10;99.90
11991;DHT22;6055;52.522;13.446;2023-03-12T06:58:37;1.20;99.90
11991;DHT22;6055;52.522;13.446;2023-03-12T07:01:03;1.20;99.90
11991;DHT22;6055;52.522;13.446;2023-03-12T07:03:29;1.20;99.90
11991;DHT22;6055;52.522;13.446;2023-03-12T07:05:56;1.20;99.90
11991;DHT22;6055;52.522;13.446;2023-03-12T07:08:22;1.30;99.90
11991;DHT22;6055;52.522;13.446;2023-03-12T07:10:48;1.40;99.90
11991;DHT22;6055;52.522;13.446;2023-03-12T07:13:13;1.40;99.90
11991;DHT22;6055;52.522;13.446;2023-03-12T07:15:39;1.40;99.90
11991;DHT22;6055;52.522;13.446;2023-03-12T07:18:07;1.50;99.90
11991;DHT22;6055;52.522;13.446;2023-03-12T07:20:39;1.60;99.90
11991;DHT22;6055;52.522;13.446;2023-03-12T07:23:05;1.70;99.90
11991;DHT22;6055;52.522;13.446;2023-03-12T07:25:30;1.70;99.90
11991;DHT22;6055;52.522;13.446;2023-03-12T07:27:55;1.70;99.90
11991;DHT22;6055;52.522;13.446;2023-03-12T07:30:23;1.80;99.90
11991;DHT22;6055;52.522;13.446;2023-03-12T07:32:48;1.90;99.90
11991;DHT22;6055;52.522;13.446;2023-03-12T07:35:14;1.90;99.90
11991;DHT22;6055;52.522;13.446;2023-03-12T07:37:39;2.00;99.90
11991;DHT22;6055;52.522;13.446;2023-03-12T07:40:05;2.00;99.90
11991;DHT22;6055;52.522;13.446;2023-03-12T07:42:34;2.00;99.90
11991;DHT22;6055;52.522;13.446;2023-03-12T07:45:00;2.00;99.90
11991;DHT22;6055;52.522;13.446;2023-03-12T07:47:25;2.00;99.90
11991;DHT22;6055;52.522;13.446;2023-03-12T07:49:51;2.00;99.90
11991;DHT22;6055;52.522;13.446;2023-03-12T07:52:16;2.00;99.90
11991;DHT22;6055;52.522;13.446;2023-03-12T07:54:44;2.00;99.90
11991;DHT22;6055;52.522;13.446;2023-03-12T07:57:09;2.00;99.90
11991;DHT22;6055;52.522;13.446;2023-03-12T07:59:35;2.00;99.90
11991;DHT22;6055;52.522;13.446;2023-03-12T08:02:00;2.00;99.90
11991;DHT22;6055;52.522;13.446;2023-03-12T08:04:26;2.10;99.90
11991;DHT22;6055;52.522;13.446;2023-03-12T08:06:51;2.10;99.90
11991;DHT22;6055;52.522;13.446;2023-03-12T08:09:17;2.20;99.90
11991;DHT22;6055;52.522;13.446;2023-03-12T08:11:42;2.20;99.90
11991;DHT22;6055;52.522;13.446;2023-03-12T08:14:08;2.30;99.90
11991;DHT22;6055;52.522;13.446;2023-03-12T08:16:33;2.40;99.90
11991;DHT22;6055;52.522;13.446;2023-03-12T08:18:59;2.40;99.90
11991;DHT22;6055;52.522;13.446;2023-03-12T08:21:24;2.40;99.90
11991;DHT22;6055;52.522;13.446;2023-03-12T08:23:50;2.40;99.90
11991;DHT22;6055;52.522;13.446;2023-03-12T08:26:15;2.40;99.90
11991;DHT22;6055;52.522;13.446;2023-03-12T08:28:41;2.40;99.90
11991;DHT22;6055;52.522;13.446;2023-03-12T08:31:06;2.40;99.90
11991;DHT22;6055;52.522;13.446;2023-03-12T08:33:34;2.50;99.90
11991;DHT22;6055;52.522;13.446;2023-03-12T08:36:00;2.50;99.90
11991;DHT22;6055;52.522;13.446;2023-03-12T08:38:25;2.60;99.90
11991;DHT22;6055;52.522;13.446;2023-03-12T08:40:56;2.60;99.90
11991;DHT22;6055;52.522;13.446;2023-03-12T08:43:22;2.70;99.90
11991;DHT22;6055;52.522;13.446;2023-03-12T08:45:53;2.80;99.90
11991;DHT22;6055;52.522;13.446;2023-03-12T08:48:18;2.90;99.90
11991;DHT22;6055;52.522;13.446;2023-03-12T08:50:44;3.10;99.90
11991;DHT22;6055;52.522;13.446;2023-03-12T08:53:09;3.20;99.90
11991;DHT22;6055;52.522;13.446;2023-03-12T08:55:35;3.30;99.90
11991;DHT22;6055;52.522;13.446;2023-03-12T08:58:00;3.40;99.90
11991;DHT22;6055;52.522;13.446;2023-03-12T09:00:26;3.50;99.90
11991;DHT22;6055;52.522;13.446;2023-03-12T09:02:51;3.70;99.90
11991;DHT22;6055;52.522;13.446;2023-03-12T09:05:18;3.80;99.90
11991;DHT22;6055;52.522;13.446;2023-03-12T09:07:44;3.80;99.90
11991;DHT22;6055;52.522;13.446;2023-03-12T09:10:10;3.80;99.90
11991;DHT22;6055;52.522;13.446;2023-03-12T09:12:35;3.70;99.90
11991;DHT22;6055;52.522;13.446;2023-03-12T09:15:01;3.70;99.90
11991;DHT22;6055;52.522;13.446;2023-03-12T09:17:28;3.70;99.90
11991;DHT22;6055;52.522;13.446;2023-03-12T09:19:53;3.70;99.90
11991;DHT22;6055;52.522;13.446;2023-03-12T09:22:19;3.60;99.90
11991;DHT22;6055;52.522;13.446;2023-03-12T09:24:44;3.60;99.90
11991;DHT22;6055;52.522;13.446;2023-03-12T09:27:10;3.70;99.90
11991;DHT22;6055;52.522;13.446;2023-03-12T09:29:35;3.80;99.90
11991;DHT22;6055;52.522;13.446;2023-03-12T09:32:01;3.90;99.90
11991;DHT22;6055;52.522;13.446;2023-03-12T09:34:26;4.00;99.90
11991;DHT22;6055;52.522;13.446;2023-03-12T09:36:52;4.10;99.90
11991;DHT22;6055;52.522;13.446;2023-03-12T09:39:17;4.30;99.90
11991;DHT22;6055;52.522;13.446;2023-03-12T09:41:45;4.60;99.90
11991;DHT22;6055;52.522;13.446;2023-03-12T09:44:31;4.60;99.90
11991;DHT22;6055;52.522;13.446;2023-03-12T09:47:02;4.70;99.90
11991;DHT22;6055;52.522;13.446;2023-03-12T09:49:37;4.70;99.90
11991;DHT22;6055;52.522;13.446;2023-03-12T09:52:23;4.80;99.90
11991;DHT22;6055;52.522;13.446;2023-03-12T09:54:58;4.90;99.90
11991;DHT22;6055;52.522;13.446;2023-03-12T09:57:25;4.80;99.90
11991;DHT22;6055;52.522;13.446;2023-03-12T09:59:54;4.70;99.90
11991;DHT22;6055;52.522;13.446;2023-03-12T10:02:27;4.70;99.90
11991;DHT22;6055;52.522;13.446;2023-03-12T10:05:31;4.90;99.90
11991;DHT22;6055;52.522;13.446;2023-03-12T10:08:27;5.20;99.90
11991;DHT22;6055;52.522;13.446;2023-03-12T10:13:46;5.90;99.90
11991;DHT22;6055;52.522;13.446;2023-03-12T10:16:24;6.10;99.90
11991;DHT22;6055;52.522;13.446;2023-03-12T10:19:23;6.30;99.90
11991;DHT22;6055;52.522;13.446;2023-03-12T10:22:30;6.50;99.90
11991;DHT22;6055;52.522;13.446;2023-03-12T10:27:33;6.50;99.90
11991;DHT22;6055;52.522;13.446;2023-03-12T10:30:02;6.40;99.90
11991;DHT22;6055;52.522;13.446;2023-03-12T10:32:39;6.40;99.90
11991;DHT22;6055;52.522;13.446;2023-03-12T10:37:42;6.50;99.90
11991;DHT22;6055;52.522;13.446;2023-03-12T10:40:14;6.40;99.90
11991;DHT22;6055;52.522;13.446;2023-03-12T10:42:41;6.40;99.90
11991;DHT22;6055;52.522;13.446;2023-03-12T10:47:38;6.80;99.90
11991;DHT22;6055;52.522;13.446;2023-03-12T10:50:23;6.60;99.90
11991;DHT22;6055;52.522;13.446;2023-03-12T10:52:51;6.70;99.90
11991;DHT22;6055;52.522;13.446;2023-03-12T10:55:26;6.80;99.90
11991;DHT22;6055;52.522;13.446;2023-03-12T10:57:54;6.80;99.90
11991;DHT22;6055;52.522;13.446;2023-03-12T11:00:28;6.90;99.90
11991;DHT22;6055;52.522;13.446;2023-03-12T11:03:16;6.90;99.60
11991;DHT22;6055;52.522;13.446;2023-03-12T11:05:48;7.00;99.60
11991;DHT22;6055;52.522;13.446;2023-03-12T11:10:52;7.40;98.90
11991;DHT22;6055;52.522;13.446;2023-03-12T11:13:27;7.70;98.20
11991;DHT22;6055;52.522;13.446;2023-03-12T11:15:54;7.90;96.90
11991;DHT22;6055;52.522;13.446;2023-03-12T11:18:24;8.10;96.70
11991;DHT22;6055;52.522;13.446;2023-03-12T11:21:12;8.10;96.20
11991;DHT22;6055;52.522;13.446;2023-03-12T11:23:42;8.00;95.10
11991;DHT22;6055;52.522;13.446;2023-03-12T11:26:21;8.10;95.80
11991;DHT22;6055;52.522;13.446;2023-03-12T11:28:50;8.20;94.50
11991;DHT22;6055;52.522;13.446;2023-03-12T11:31:22;8.30;94.00
11991;DHT22;6055;52.522;13.446;2023-03-12T11:33:51;8.50;94.20
11991;DHT22;6055;52.522;13.446;2023-03-12T11:39:19;7.80;94.60
11991;DHT22;6055;52.522;13.446;2023-03-12T11:42:05;8.00;95.00
11991;DHT22;6055;52.522;13.446;2023-03-12T11:45:02;8.20;94.80
11991;DHT22;6055;52.522;13.446;2023-03-12T11:47:58;8.60;93.40
11991;DHT22;6055;52.522;13.446;2023-03-12T11:50:38;8.70;94.20
11991;DHT22;6055;52.522;13.446;2023-03-12T11:56:29;8.30;94.30
11991;DHT22;6055;52.522;13.446;2023-03-12T11:59:20;8.10;93.00
11991;DHT22;6055;52.522;13.446;2023-03-12T12:02:07;7.40;93.40
11991;DHT22;6055;52.522;13.446;2023-03-12T12:07:44;7.40;93.80
11991;DHT22;6055;52.522;13.446;2023-03-12T12:10:27;7.70;93.50
11991;DHT22;6055;52.522;13.446;2023-03-12T12:16:00;7.70;92.70
11991;DHT22;6055;52.522;13.446;2023-03-12T12:19:03;7.60;92.30
11991;DHT22;6055;52.522;13.446;2023-03-12T12:27:28;7.60;87.40
11991;DHT22;6055;52.522;13.446;2023-03-12T12:30:16;7.60;85.40
11991;DHT22;6055;52.522;13.446;2023-03-12T12:35:37;7.40;87.60
11991;DHT22;6055;52.522;13.446;2023-03-12T12:38:16;7.40;88.50
11991;DHT22;6055;52.522;13.446;2023-03-12T12:40:51;7.50;88.00
11991;DHT22;6055;52.522;13.446;2023-03-12T12:43:29;7.70;89.80
11991;DHT22;6055;52.522;13.446;2023-03-12T12:46:01;7.90;90.40
11991;DHT22;6055;52.522;13.446;2023-03-12T12:48:35;8.00;90.60
11991;DHT22;6055;52.522;13.446;2023-03-12T12:51:02;7.90;87.90
11991;DHT22;6055;52.522;13.446;2023-03-12T12:53:58;7.80;85.50
11991;DHT22;6055;52.522;13.446;2023-03-12T12:56:33;7.80;85.90
11991;DHT22;6055;52.522;13.446;2023-03-12T12:59:39;8.00;88.80
11991;DHT22;6055;52.522;13.446;2023-03-12T13:02:26;8.10;87.80
11991;DHT22;6055;52.522;13.446;2023-03-12T13:04:59;8.10;87.20
11991;DHT22;6055;52.522;13.446;2023-03-12T13:09:53;8.20;86.20
11991;DHT22;6055;52.522;13.446;2023-03-12T13:12:42;8.10;85.80
11991;DHT22;6055;52.522;13.446;2023-03-12T13:20:30;7.90;85.70
11991;DHT22;6055;52.522;13.446;2023-03-12T13:23:07;7.70;84.10
11991;DHT22;6055;52.522;13.446;2023-03-12T13:30:58;7.50;87.00
11991;DHT22;6055;52.522;13.446;2023-03-12T13:33:39;7.50;87.40
11991;DHT22;6055;52.522;13.446;2023-03-12T13:38:59;7.60;87.20
11991;DHT22;6055;52.522;13.446;2023-03-12T13:43:59;7.30;86.90
11991;DHT22;6055;52.522;13.446;2023-03-12T13:46:40;7.20;88.10
11991;DHT22;6055;52.522;13.446;2023-03-12T13:49:10;7.20;89.00
11991;DHT22;6055;52.522;13.446;2023-03-12T13:51:45;7.10;87.90
11991;DHT22;6055;52.522;13.446;2023-03-12T13:54:16;7.10;88.30
11991;DHT22;6055;52.522;13.446;2023-03-12T13:56:56;7.20;89.20
11991;DHT22;6055;52.522;13.446;2023-03-12T13:59:23;7.20;89.30
11991;DHT22;6055;52.522;13.446;2023-03-12T14:01:55;7.30;87.60
11991;DHT22;6055;52.522;13.446;2023-03-12T14:04:32;7.20;86.80
11991;DHT22;6055;52.522;13.446;2023-03-12T14:07:28;7.20;86.60
11991;DHT22;6055;52.522;13.446;2023-03-12T14:10:20;7.00;85.30
11991;DHT22;6055;52.522;13.446;2023-03-12T14:13:00;6.90;84.00
11991;DHT22;6055;52.522;13.446;2023-03-12T14:15:39;6.90;82.70
11991;DHT22;6055;52.522;13.446;2023-03-12T14:18:14;6.80;83.80
11991;DHT22;6055;52.522;13.446;2023-03-12T14:20:52;6.80;83.90
11991;DHT22;6055;52.522;13.446;2023-03-12T14:23:18;6.70;82.90
11991;DHT22;6055;52.522;13.446;2023-03-12T14:25:45;6.60;84.00
11991;DHT22;6055;52.522;13.446;2023-03-12T14:28:19;6.70;84.50
11991;DHT22;6055;52.522;13.446;2023-03-12T14:31:01;6.60;85.10
11991;DHT22;6055;52.522;13.446;2023-03-12T14:33:34;6.50;86.50
11991;DHT22;6055;52.522;13.446;2023-03-12T14:36:11;6.50;85.70
11991;DHT22;6055;52.522;13.446;2023-03-12T14:38:42;6.30;86.80
11991;DHT22;6055;52.522;13.446;2023-03-12T14:41:13;6.30;88.10
11991;DHT22;6055;52.522;13.446;2023-03-12T14:43:42;6.30;88.70
11991;DHT22;6055;52.522;13.446;2023-03-12T14:46:22;6.30;89.80
11991;DHT22;6055;52.522;13.446;2023-03-12T14:48:49;6.30;90.00
11991;DHT22;6055;52.522;13.446;2023-03-12T14:51:22;6.30;90.30
11991;DHT22;6055;52.522;13.446;2023-03-12T14:53:49;6.20;90.50
11991;DHT22;6055;52.522;13.446;2023-03-12T14:56:30;6.20;90.90
11991;DHT22;6055;52.522;13.446;2023-03-12T14:58:59;6.10;91.10
11991;DHT22;6055;52.522;13.446;2023-03-12T15:01:30;6.10;91.00
11991;DHT22;6055;52.522;13.446;2023-03-12T15:04:04;6.10;91.40
11991;DHT22;6055;52.522;13.446;2023-03-12T15:06:34;6.20;91.80
11991;DHT22;6055;52.522;13.446;2023-03-12T15:09:03;6.20;91.70
11991;DHT22;6055;52.522;13.446;2023-03-12T15:11:34;6.20;92.00
11991;DHT22;6055;52.522;13.446;2023-03-12T15:14:11;6.20;91.90
11991;DHT22;6055;52.522;13.446;2023-03-12T15:16:39;6.10;91.80
11991;DHT22;6055;52.522;13.446;2023-03-12T15:19:05;6.20;92.30
11991;DHT22;6055;52.522;13.446;2023-03-12T15:21:34;6.20;92.20
11991;DHT22;6055;52.522;13.446;2023-03-12T15:23:59;6.20;92.00
11991;DHT22;6055;52.522;13.446;2023-03-12T15:26:30;6.20;92.70
11991;DHT22;6055;52.522;13.446;2023-03-12T15:29:21;6.20;92.10
11991;DHT22;6055;52.522;13.446;2023-03-12T15:31:52;6.10;92.40
11991;DHT22;6055;52.522;13.446;2023-03-12T15:34:31;6.10;92.00
11991;DHT22;6055;52.522;13.446;2023-03-12T15:36:59;6.00;92.60
11991;DHT22;6055;52.522;13.446;2023-03-12T15:39:33;6.00;92.90
11991;DHT22;6055;52.522;13.446;2023-03-12T15:42:01;5.90;93.60
11991;DHT22;6055;52.522;13.446;2023-03-12T15:44:55;5.70;93.90
11991;DHT22;6055;52.522;13.446;2023-03-12T15:47:30;5.60;94.80
11991;DHT22;6055;52.522;13.446;2023-03-12T15:50:01;5.50;95.70
11991;DHT22;6055;52.522;13.446;2023-03-12T15:52:32;5.50;96.00
11991;DHT22;6055;52.522;13.446;2023-03-12T15:57:49;5.40;97.40
11991;DHT22;6055;52.522;13.446;2023-03-12T16:00:21;5.40;98.00
11991;DHT22;6055;52.522;13.446;2023-03-12T16:02:56;5.30;98.40
11991;DHT22;6055;52.522;13.446;2023-03-12T16:05:25;5.40;98.70
11991;DHT22;6055;52.522;13.446;2023-03-12T16:07:51;5.30;99.40
11991;DHT22;6055;52.522;13.446;2023-03-12T16:10:19;5.30;99.90
11991;DHT22;6055;52.522;13.446;2023-03-12T16:12:47;5.30;99.90
11991;DHT22;6055;52.522;13.446;2023-03-12T16:15:15;5.20;99.90
11991;DHT22;6055;52.522;13.446;2023-03-12T16:17:41;5.10;99.90
11991;DHT22;6055;52.522;13.446;2023-03-12T16:20:12;5.10;99.90
11991;DHT22;6055;52.522;13.446;2023-03-12T16:22:38;5.10;99.90
11991;DHT22;6055;52.522;13.446;2023-03-12T16:25:04;5.10;99.90
11991;DHT22;6055;52.522;13.446;2023-03-12T16:27:30;5.00;99.90
11991;DHT22;6055;52.522;13.446;2023-03-12T16:29:56;5.00;99.90
11991;DHT22;6055;52.522;13.446;2023-03-12T16:32:21;5.10;99.90
11991;DHT22;6055;52.522;13.446;2023-03-12T16:34:47;5.00;99.90
11991;DHT22;6055;52.522;13.446;2023-03-12T16:37:13;5.00;99.90
11991;DHT22;6055;52.522;13.446;2023-03-12T16:39:39;5.00;99.90
11991;DHT22;6055;52.522;13.446;2023-03-12T16:42:15;5.00;99.90
11991;DHT22;6055;52.522;13.446;2023-03-12T16:44:41;5.00;99.90
11991;DHT22;6055;52.522;13.446;2023-03-12T16:47:12;5.00;99.90
11991;DHT22;6055;52.522;13.446;2023-03-12T16:49:38;5.00;99.90
11991;DHT22;6055;52.522;13.446;2023-03-12T16:52:18;5.00;99.90
11991;DHT22;6055;52.522;13.446;2023-03-12T16:54:46;5.00;99.90
11991;DHT22;6055;52.522;13.446;2023-03-12T16:57:26;4.90;99.90
11991;DHT22;6055;52.522;13.446;2023-03-12T16:59:54;4.90;99.90
11991;DHT22;6055;52.522;13.446;2023-03-12T17:02:19;4.70;99.90